Main page
METAR-TAF:

METAR-TAF

Airports :

Šiauliai International Airport

Šiauliai, Lithuania

latitude: 55-53-38N, longitude: 023-23-42E, elevation: 135 m

Current weather observation

The report was made 23 minutes ago, at 15:20 UTC
Wind 19 kt from the Southeast
Temperature 24°C
Humidity 47%
Pressure 1011 hPa
Visibility 10 km or more
no clouds below 1500 m and no cumulonimbus

METAR: EYSA 201520Z 14019KT CAVOK 24/12 Q1011 BLU NOSIG

Time: 18:43 (15:43 UTC)

Forecast

The report was made 1 hour and 32 minutes ago, at 14:11 UTC
Forecast valid from 20 at 15 UTC to 20 at 24 UTC
Wind 15 kt from the East/Southeast
Visibility 10 km or more
Scattered clouds at a height of 4500 ft, Cumulonimbus.
Probability 40% :
Temporary
from 20 at 15 UTC to 20 at 18 UTC
thunderstorm, rain
Becoming
from 20 at 18 UTC to 20 at 19 UTC
Wind 5 kt from variable directions

TAF: EYSA 201411Z 2015/2024 11015KT 9999 SCT045CB PROB40 TEMPO 2015/2018 TSRA BECMG 2018/2019 VRB05KT

Weather observations and forecasts of more than 4000 airports (METAR and TAF reports).

The available stations are represented by yellow and red dots on the map.

Hover mouse over dot to see the name of the station.

Then click to see weather observations and forecasts.

To change the map : click on the green buttons with a black cross to zoom in, on the green button with a dash to zoom out, or on the green arrows for adjacent maps.


METAR-TAF: